sensor_id;sensor_type;location;lat;lon;timestamp;pressure;altitude;pressure_sealevel;temperature;humidity
39341;BME280;25059;52.132;21.062;2023-04-06T00:00:18;100959.13;;;3.60;58.81
39341;BME280;25059;52.132;21.062;2023-04-06T00:03:17;100960.84;;;3.74;58.45
39341;BME280;25059;52.132;21.062;2023-04-06T00:06:02;100960.00;;;3.75;58.76
39341;BME280;25059;52.132;21.062;2023-04-06T00:08:47;100952.19;;;3.75;58.42
39341;BME280;25059;52.132;21.062;2023-04-06T00:11:32;100947.84;;;3.74;58.41
39341;BME280;25059;52.132;21.062;2023-04-06T00:14:16;100946.13;;;3.72;58.59
39341;BME280;25059;52.132;21.062;2023-04-06T00:17:01;100952.19;;;3.80;59.08
39341;BME280;25059;52.132;21.062;2023-04-06T00:19:46;100941.81;;;3.59;59.24
39341;BME280;25059;52.132;21.062;2023-04-06T00:22:30;100954.81;;;3.57;59.38
39341;BME280;25059;52.132;21.062;2023-04-06T00:25:15;100932.28;;;3.44;59.31
39341;BME280;25059;52.132;21.062;2023-04-06T00:28:00;100942.69;;;3.44;60.09
39341;BME280;25059;52.132;21.062;2023-04-06T00:30:45;100927.09;;;3.41;60.14
39341;BME280;25059;52.132;21.062;2023-04-06T00:33:30;100941.81;;;3.55;60.18
39341;BME280;25059;52.132;21.062;2023-04-06T00:36:14;100920.16;;;3.40;60.64
39341;BME280;25059;52.132;21.062;2023-04-06T00:38:59;100941.81;;;3.62;60.31
39341;BME280;25059;52.132;21.062;2023-04-06T00:41:47;100930.56;;;3.53;60.52
39341;BME280;25059;52.132;21.062;2023-04-06T00:44:34;100924.50;;;3.41;60.00
39341;BME280;25059;52.132;21.062;2023-04-06T00:47:19;100930.53;;;3.61;60.01
39341;BME280;25059;52.132;21.062;2023-04-06T00:50:04;100914.09;;;3.38;60.05
39341;BME280;25059;52.132;21.062;2023-04-06T00:52:49;100921.03;;;3.43;60.26
39341;BME280;25059;52.132;21.062;2023-04-06T00:55:34;100928.81;;;3.66;59.82
39341;BME280;25059;52.132;21.062;2023-04-06T00:58:19;100933.16;;;3.56;60.23
39341;BME280;25059;52.132;21.062;2023-04-06T01:01:04;100932.28;;;3.65;60.68
39341;BME280;25059;52.132;21.062;2023-04-06T01:03:49;100922.75;;;3.47;61.03
39341;BME280;25059;52.132;21.062;2023-04-06T01:06:35;100921.03;;;3.49;61.16
39341;BME280;25059;52.132;21.062;2023-04-06T01:09:19;100927.09;;;3.53;61.36
39341;BME280;25059;52.132;21.062;2023-04-06T01:12:04;100924.50;;;3.53;61.58
39341;BME280;25059;52.132;21.062;2023-04-06T01:14:48;100922.75;;;3.53;61.48
39341;BME280;25059;52.132;21.062;2023-04-06T01:17:33;100919.28;;;3.58;61.79
39341;BME280;25059;52.132;21.062;2023-04-06T01:20:17;100914.06;;;3.65;61.82
39341;BME280;25059;52.132;21.062;2023-04-06T01:23:02;100911.47;;;3.62;61.60
39341;BME280;25059;52.132;21.062;2023-04-06T01:25:47;100912.34;;;3.52;62.29
39341;BME280;25059;52.132;21.062;2023-04-06T01:28:31;100901.06;;;3.67;62.22
39341;BME280;25059;52.132;21.062;2023-04-06T01:31:16;100894.13;;;3.73;62.27
39341;BME280;25059;52.132;21.062;2023-04-06T01:34:01;100879.41;;;3.71;63.09
39341;BME280;25059;52.132;21.062;2023-04-06T01:36:45;100899.34;;;3.63;62.48
39341;BME280;25059;52.132;21.062;2023-04-06T01:39:30;100897.63;;;3.52;62.75
39341;BME280;25059;52.132;21.062;2023-04-06T01:42:15;100892.44;;;3.49;62.57
39341;BME280;25059;52.132;21.062;2023-04-06T01:44:59;100888.13;;;3.39;62.07
39341;BME280;25059;52.132;21.062;2023-04-06T01:47:44;100877.72;;;3.24;62.52
39341;BME280;25059;52.132;21.062;2023-04-06T01:50:28;100877.75;;;3.21;62.27
39341;BME280;25059;52.132;21.062;2023-04-06T01:53:13;100890.72;;;3.32;62.57
39341;BME280;25059;52.132;21.062;2023-04-06T01:55:58;100888.09;;;3.48;61.95
39341;BME280;25059;52.132;21.062;2023-04-06T01:58:43;100881.16;;;3.50;61.97
39341;BME280;25059;52.132;21.062;2023-04-06T02:01:28;100875.09;;;3.61;61.52
39341;BME280;25059;52.132;21.062;2023-04-06T02:04:13;100882.03;;;3.54;61.60
39341;BME280;25059;52.132;21.062;2023-04-06T02:06:58;100875.97;;;3.52;61.56
39341;BME280;25059;52.132;21.062;2023-04-06T02:09:43;100874.25;;;3.34;62.11
39341;BME280;25059;52.132;21.062;2023-04-06T02:12:28;100870.81;;;3.26;61.92
39341;BME280;25059;52.132;21.062;2023-04-06T02:15:12;100872.53;;;3.35;62.02
39341;BME280;25059;52.132;21.062;2023-04-06T02:17:58;100860.41;;;3.20;61.96
39341;BME280;25059;52.132;21.062;2023-04-06T02:20:44;100863.88;;;3.37;61.90
39341;BME280;25059;52.132;21.062;2023-04-06T02:23:29;100867.31;;;3.36;61.77
39341;BME280;25059;52.132;21.062;2023-04-06T02:26:14;100856.94;;;3.22;61.96
39341;BME280;25059;52.132;21.062;2023-04-06T02:28:59;100855.22;;;3.14;62.95
39341;BME280;25059;52.132;21.062;2023-04-06T02:31:44;100854.34;;;3.15;62.99
39341;BME280;25059;52.132;21.062;2023-04-06T02:34:28;100855.22;;;3.08;63.59
39341;BME280;25059;52.132;21.062;2023-04-06T02:37:13;100850.03;;;3.09;63.86
39341;BME280;25059;52.132;21.062;2023-04-06T02:39:58;100853.50;;;3.11;64.43
39341;BME280;25059;52.132;21.062;2023-04-06T02:42:43;100857.84;;;3.03;65.04
39341;BME280;25059;52.132;21.062;2023-04-06T02:45:27;100856.97;;;2.98;65.44
39341;BME280;25059;52.132;21.062;2023-04-06T02:48:12;100851.75;;;2.74;66.81
39341;BME280;25059;52.132;21.062;2023-04-06T02:50:56;100847.44;;;2.77;67.44
39341;BME280;25059;52.132;21.062;2023-04-06T02:53:41;100852.63;;;2.71;68.19
39341;BME280;25059;52.132;21.062;2023-04-06T02:56:26;100848.31;;;2.79;68.34
39341;BME280;25059;52.132;21.062;2023-04-06T02:59:10;100867.34;;;2.71;69.66
39341;BME280;25059;52.132;21.062;2023-04-06T03:01:55;100860.41;;;2.68;69.84
39341;BME280;25059;52.132;21.062;2023-04-06T03:04:39;100856.06;;;2.64;70.39
39341;BME280;25059;52.132;21.062;2023-04-06T03:07:24;100827.50;;;2.47;71.08
39341;BME280;25059;52.132;21.062;2023-04-06T03:10:09;100859.53;;;2.72;71.61
39341;BME280;25059;52.132;21.062;2023-04-06T03:12:54;100858.69;;;2.69;72.45
39341;BME280;25059;52.132;21.062;2023-04-06T03:15:39;100866.47;;;2.81;73.23
39341;BME280;25059;52.132;21.062;2023-04-06T03:18:24;100863.00;;;2.79;73.10
39341;BME280;25059;52.132;21.062;2023-04-06T03:21:09;100860.41;;;2.65;74.17
39341;BME280;25059;52.132;21.062;2023-04-06T03:23:54;100866.44;;;2.58;74.61
39341;BME280;25059;52.132;21.062;2023-04-06T03:26:38;100874.25;;;2.69;74.94
39341;BME280;25059;52.132;21.062;2023-04-06T03:29:23;100858.63;;;2.49;77.49
39341;BME280;25059;52.132;21.062;2023-04-06T03:32:07;100877.66;;;2.43;77.88
39341;BME280;25059;52.132;21.062;2023-04-06T03:34:52;100855.16;;;2.42;78.00
39341;BME280;25059;52.132;21.062;2023-04-06T03:37:37;100863.84;;;2.52;78.89
39341;BME280;25059;52.132;21.062;2023-04-06T03:40:22;100856.88;;;2.30;80.21
39341;BME280;25059;52.132;21.062;2023-04-06T03:43:06;100872.47;;;2.45;81.08
39341;BME280;25059;52.132;21.062;2023-04-06T03:45:51;100869.00;;;2.37;82.79
39341;BME280;25059;52.132;21.062;2023-04-06T03:48:36;100858.56;;;2.20;83.38
39341;BME280;25059;52.132;21.062;2023-04-06T03:51:21;100870.66;;;2.16;85.33
39341;BME280;25059;52.132;21.062;2023-04-06T03:54:05;100863.75;;;2.18;86.75
39341;BME280;25059;52.132;21.062;2023-04-06T03:56:50;100863.75;;;2.21;87.46
39341;BME280;25059;52.132;21.062;2023-04-06T03:59:34;100863.75;;;2.23;88.52
39341;BME280;25059;52.132;21.062;2023-04-06T04:02:19;100862.91;;;2.21;89.65
39341;BME280;25059;52.132;21.062;2023-04-06T04:05:04;100868.97;;;2.28;89.13
39341;BME280;25059;52.132;21.062;2023-04-06T04:07:48;100854.25;;;2.19;89.54
39341;BME280;25059;52.132;21.062;2023-04-06T04:10:33;100866.38;;;2.29;89.72
39341;BME280;25059;52.132;21.062;2023-04-06T04:13:18;100870.72;;;2.33;89.95
39341;BME280;25059;52.132;21.062;2023-04-06T04:16:03;100851.69;;;2.39;89.34
39341;BME280;25059;52.132;21.062;2023-04-06T04:18:48;100852.56;;;2.36;89.20
39341;BME280;25059;52.132;21.062;2023-04-06T04:21:33;100866.41;;;2.35;90.05
39341;BME280;25059;52.132;21.062;2023-04-06T04:24:17;100867.25;;;2.31;89.67
39341;BME280;25059;52.132;21.062;2023-04-06T04:27:02;100858.59;;;2.29;90.28
39341;BME280;25059;52.132;21.062;2023-04-06T04:29:46;100864.66;;;2.30;90.43
39341;BME280;25059;52.132;21.062;2023-04-06T04:32:31;100860.38;;;2.47;88.45
39341;BME280;25059;52.132;21.062;2023-04-06T04:35:16;100856.03;;;2.46;89.18
39341;BME280;25059;52.132;21.062;2023-04-06T04:38:00;100836.16;;;2.48;87.87
39341;BME280;25059;52.132;21.062;2023-04-06T04:40:45;100846.56;;;2.66;86.32
39341;BME280;25059;52.132;21.062;2023-04-06T04:43:29;100837.03;;;2.61;85.45
39341;BME280;25059;52.132;21.062;2023-04-06T04:46:14;100843.97;;;2.69;85.26
39341;BME280;25059;52.132;21.062;2023-04-06T04:48:58;100836.19;;;2.87;83.71
39341;BME280;25059;52.132;21.062;2023-04-06T04:51:43;100838.78;;;3.10;82.89
39341;BME280;25059;52.132;21.062;2023-04-06T04:54:28;100844.84;;;3.08;81.82
39341;BME280;25059;52.132;21.062;2023-04-06T04:57:12;100838.75;;;3.27;78.85
39341;BME280;25059;52.132;21.062;2023-04-06T04:59:57;100830.09;;;3.39;78.29
39341;BME280;25059;52.132;21.062;2023-04-06T05:02:42;100834.38;;;3.50;75.93
39341;BME280;25059;52.132;21.062;2023-04-06T05:05:26;100833.50;;;3.54;74.85
39341;BME280;25059;52.132;21.062;2023-04-06T05:08:11;100843.09;;;3.33;73.96
39341;BME280;25059;52.132;21.062;2023-04-06T05:10:56;100843.91;;;3.59;73.63
39341;BME280;25059;52.132;21.062;2023-04-06T05:13:41;100844.81;;;3.37;74.43
39341;BME280;25059;52.132;21.062;2023-04-06T05:16:26;100842.19;;;3.52;73.90
39341;BME280;25059;52.132;21.062;2023-04-06T05:19:11;100837.78;;;3.75;72.94
39341;BME280;25059;52.132;21.062;2023-04-06T05:21:55;100831.75;;;3.66;73.00
39341;BME280;25059;52.132;21.062;2023-04-06T05:24:40;100835.25;;;3.54;72.48
39341;BME280;25059;52.132;21.062;2023-04-06T05:27:25;100840.38;;;3.74;71.99
39341;BME280;25059;52.132;21.062;2023-04-06T05:30:09;100829.97;;;3.81;71.83
39341;BME280;25059;52.132;21.062;2023-04-06T05:33:01;100822.97;;;3.96;70.69
39341;BME280;25059;52.132;21.062;2023-04-06T05:35:46;100830.69;;;4.12;70.59
39341;BME280;25059;52.132;21.062;2023-04-06T05:38:30;100832.34;;;4.24;69.98
39341;BME280;25059;52.132;21.062;2023-04-06T05:41:15;100831.50;;;4.20;70.01
39341;BME280;25059;52.132;21.062;2023-04-06T05:44:00;100826.97;;;4.56;69.07
39341;BME280;25059;52.132;21.062;2023-04-06T05:46:45;100821.56;;;4.82;68.00
39341;BME280;25059;52.132;21.062;2023-04-06T05:49:29;100819.00;;;4.76;67.42
39341;BME280;25059;52.132;21.062;2023-04-06T05:52:15;100817.28;;;4.72;67.11
39341;BME280;25059;52.132;21.062;2023-04-06T05:54:59;100822.56;;;4.66;67.71
39341;BME280;25059;52.132;21.062;2023-04-06T05:57:44;100823.28;;;4.83;66.92
39341;BME280;25059;52.132;21.062;2023-04-06T06:00:28;100818.09;;;4.81;66.58
39341;BME280;25059;52.132;21.062;2023-04-06T06:03:13;100817.22;;;4.82;66.88
39341;BME280;25059;52.132;21.062;2023-04-06T06:06:01;100811.06;;;4.90;66.06
39341;BME280;25059;52.132;21.062;2023-04-06T06:08:48;100817.22;;;4.82;66.25
39341;BME280;25059;52.132;21.062;2023-04-06T06:11:32;100824.78;;;5.11;66.09
39341;BME280;25059;52.132;21.062;2023-04-06T06:14:17;100799.69;;;5.01;64.82
39341;BME280;25059;52.132;21.062;2023-04-06T06:17:02;100813.44;;;5.15;64.61
39341;BME280;25059;52.132;21.062;2023-04-06T06:19:47;100819.59;;;5.10;64.77
39341;BME280;25059;52.132;21.062;2023-04-06T06:22:31;100815.19;;;5.15;64.57
39341;BME280;25059;52.132;21.062;2023-04-06T06:25:16;100796.88;;;5.21;64.03
39341;BME280;25059;52.132;21.062;2023-04-06T06:28:00;100802.16;;;5.16;64.77
39341;BME280;25059;52.132;21.062;2023-04-06T06:30:45;100808.53;;;5.69;63.47
39341;BME280;25059;52.132;21.062;2023-04-06T06:33:30;100800.63;;;5.75;62.32
39341;BME280;25059;52.132;21.062;2023-04-06T06:36:15;100796.56;;;5.53;61.97
39341;BME280;25059;52.132;21.062;2023-04-06T06:38:59;100805.53;;;5.26;63.46
39341;BME280;25059;52.132;21.062;2023-04-06T06:41:45;100798.78;;;5.05;65.20
39341;BME280;25059;52.132;21.062;2023-04-06T06:44:30;100798.91;;;4.92;65.30
39341;BME280;25059;52.132;21.062;2023-04-06T06:47:15;100789.78;;;5.37;64.84
39341;BME280;25059;52.132;21.062;2023-04-06T06:50:00;100806.22;;;5.43;65.18
39341;BME280;25059;52.132;21.062;2023-04-06T06:52:46;100794.84;;;5.49;64.98
39341;BME280;25059;52.132;21.062;2023-04-06T06:55:30;100791.03;;;5.79;64.70
39341;BME280;25059;52.132;21.062;2023-04-06T06:58:18;100799.81;;;5.72;64.93
39341;BME280;25059;52.132;21.062;2023-04-06T07:01:03;100785.34;;;6.17;63.64
39341;BME280;25059;52.132;21.062;2023-04-06T07:03:49;100790.47;;;6.23;62.83
39341;BME280;25059;52.132;21.062;2023-04-06T07:06:35;100793.66;;;5.77;64.47
39341;BME280;25059;52.132;21.062;2023-04-06T07:09:20;100791.59;;;6.05;64.97
39341;BME280;25059;52.132;21.062;2023-04-06T07:12:05;100788.00;;;6.12;64.06
39341;BME280;25059;52.132;21.062;2023-04-06T07:14:49;100785.22;;;6.82;62.75
39341;BME280;25059;52.132;21.062;2023-04-06T07:17:34;100776.78;;;6.64;61.52
39341;BME280;25059;52.132;21.062;2023-04-06T07:20:18;100785.59;;;6.59;62.00
39341;BME280;25059;52.132;21.062;2023-04-06T07:23:03;100774.03;;;6.73;61.61
39341;BME280;25059;52.132;21.062;2023-04-06T07:25:48;100785.25;;;6.78;61.68
39341;BME280;25059;52.132;21.062;2023-04-06T07:28:35;100774.41;;;7.01;61.20
39341;BME280;25059;52.132;21.062;2023-04-06T07:31:20;100760.59;;;6.95;59.46
39341;BME280;25059;52.132;21.062;2023-04-06T07:34:05;100782.44;;;6.37;61.05
39341;BME280;25059;52.132;21.062;2023-04-06T07:36:50;100785.81;;;6.45;61.53
39341;BME280;25059;52.132;21.062;2023-04-06T07:39:37;100780.91;;;6.24;62.36
39341;BME280;25059;52.132;21.062;2023-04-06T07:42:21;100781.75;;;6.24;62.77
39341;BME280;25059;52.132;21.062;2023-04-06T07:45:06;100777.97;;;5.79;63.83
39341;BME280;25059;52.132;21.062;2023-04-06T07:47:52;100778.69;;;5.93;65.01
39341;BME280;25059;52.132;21.062;2023-04-06T07:50:36;100773.91;;;6.26;64.44
39341;BME280;25059;52.132;21.062;2023-04-06T07:53:21;100779.31;;;6.70;64.45
39341;BME280;25059;52.132;21.062;2023-04-06T07:56:06;100777.69;;;7.14;62.95
39341;BME280;25059;52.132;21.062;2023-04-06T07:58:51;100771.75;;;7.04;64.37
39341;BME280;25059;52.132;21.062;2023-04-06T08:01:36;100770.66;;;7.16;63.44
39341;BME280;25059;52.132;21.062;2023-04-06T08:04:21;100758.88;;;7.83;61.76
39341;BME280;25059;52.132;21.062;2023-04-06T08:07:06;100757.59;;;8.02;61.40
39341;BME280;25059;52.132;21.062;2023-04-06T08:09:51;100747.22;;;7.98;60.87
39341;BME280;25059;52.132;21.062;2023-04-06T08:12:36;100746.13;;;8.08;60.83
39341;BME280;25059;52.132;21.062;2023-04-06T08:15:20;100762.66;;;7.70;62.64
39341;BME280;25059;52.132;21.062;2023-04-06T08:18:05;100761.81;;;6.75;65.11
39341;BME280;25059;52.132;21.062;2023-04-06T08:20:50;100773.34;;;6.62;66.64
39341;BME280;25059;52.132;21.062;2023-04-06T08:23:34;100750.94;;;7.00;65.20
39341;BME280;25059;52.132;21.062;2023-04-06T08:26:19;100755.75;;;7.66;64.81
39341;BME280;25059;52.132;21.062;2023-04-06T08:29:04;100754.38;;;8.28;62.29
39341;BME280;25059;52.132;21.062;2023-04-06T08:31:52;100752.16;;;8.12;61.38
39341;BME280;25059;52.132;21.062;2023-04-06T08:34:36;100762.69;;;7.68;61.97
39341;BME280;25059;52.132;21.062;2023-04-06T08:37:22;100762.97;;;7.08;64.75
39341;BME280;25059;52.132;21.062;2023-04-06T08:40:06;100761.38;;;6.47;69.54
39341;BME280;25059;52.132;21.062;2023-04-06T08:42:55;100765.56;;;6.58;73.68
39341;BME280;25059;52.132;21.062;2023-04-06T08:45:41;100761.44;;;6.44;74.57
39341;BME280;25059;52.132;21.062;2023-04-06T08:48:27;100769.88;;;6.60;73.50
39341;BME280;25059;52.132;21.062;2023-04-06T08:51:11;100754.53;;;6.40;73.53
39341;BME280;25059;52.132;21.062;2023-04-06T08:53:59;100759.38;;;6.65;73.14
39341;BME280;25059;52.132;21.062;2023-04-06T08:56:44;100753.75;;;6.88;73.75
39341;BME280;25059;52.132;21.062;2023-04-06T08:59:30;100753.97;;;6.75;72.62
39341;BME280;25059;52.132;21.062;2023-04-06T09:02:18;100743.75;;;7.11;72.87
39341;BME280;25059;52.132;21.062;2023-04-06T09:05:04;100734.56;;;6.89;70.63
39341;BME280;25059;52.132;21.062;2023-04-06T09:07:50;100734.66;;;7.30;70.39
39341;BME280;25059;52.132;21.062;2023-04-06T09:10:35;100739.53;;;6.53;72.64
39341;BME280;25059;52.132;21.062;2023-04-06T09:13:24;100741.34;;;6.48;75.00
39341;BME280;25059;52.132;21.062;2023-04-06T09:16:09;100738.88;;;6.40;78.56
39341;BME280;25059;52.132;21.062;2023-04-06T09:18:53;100725.28;;;6.17;82.49
39341;BME280;25059;52.132;21.062;2023-04-06T09:21:39;100734.09;;;6.10;82.49
39341;BME280;25059;52.132;21.062;2023-04-06T09:24:23;100722.34;;;6.40;86.02
39341;BME280;25059;52.132;21.062;2023-04-06T09:27:10;100727.31;;;6.55;81.48
39341;BME280;25059;52.132;21.062;2023-04-06T09:30:04;100726.88;;;6.29;84.04
39341;BME280;25059;52.132;21.062;2023-04-06T09:32:52;100727.00;;;6.20;82.98
39341;BME280;25059;52.132;21.062;2023-04-06T09:35:38;100720.41;;;5.94;85.68
39341;BME280;25059;52.132;21.062;2023-04-06T09:38:23;100715.53;;;5.67;89.81
39341;BME280;25059;52.132;21.062;2023-04-06T09:41:07;100714.97;;;5.42;100.00
39341;BME280;25059;52.132;21.062;2023-04-06T09:44:02;100709.78;;;5.40;100.00
39341;BME280;25059;52.132;21.062;2023-04-06T09:46:47;100704.69;;;5.31;100.00
39341;BME280;25059;52.132;21.062;2023-04-06T09:49:33;100710.59;;;5.45;100.00
39341;BME280;25059;52.132;21.062;2023-04-06T09:52:17;100727.66;;;4.94;100.00
39341;BME280;25059;52.132;21.062;2023-04-06T09:55:05;100720.78;;;4.87;100.00
39341;BME280;25059;52.132;21.062;2023-04-06T09:57:58;100715.22;;;4.29;100.00
39341;BME280;25059;52.132;21.062;2023-04-06T10:00:51;100701.28;;;4.36;100.00
39341;BME280;25059;52.132;21.062;2023-04-06T10:07:05;100710.69;;;4.55;100.00
39341;BME280;25059;52.132;21.062;2023-04-06T10:09:53;100689.84;;;4.55;100.00
39341;BME280;25059;52.132;21.062;2023-04-06T10:12:40;100700.16;;;4.67;100.00
39341;BME280;25059;52.132;21.062;2023-04-06T10:15:25;100681.88;;;4.73;100.00
39341;BME280;25059;52.132;21.062;2023-04-06T10:18:10;100685.19;;;4.89;100.00
39341;BME280;25059;52.132;21.062;2023-04-06T10:21:00;100679.06;;;4.93;100.00
39341;BME280;25059;52.132;21.062;2023-04-06T10:23:53;100698.69;;;4.36;100.00
39341;BME280;25059;52.132;21.062;2023-04-06T10:26:39;100685.81;;;4.19;100.00
39341;BME280;25059;52.132;21.062;2023-04-06T10:29:24;100684.78;;;4.40;100.00
39341;BME280;25059;52.132;21.062;2023-04-06T10:32:09;100673.59;;;4.27;100.00
39341;BME280;25059;52.132;21.062;2023-04-06T10:35:05;100677.78;;;4.45;100.00
39341;BME280;25059;52.132;21.062;2023-04-06T10:37:59;100673.53;;;4.36;100.00
39341;BME280;25059;52.132;21.062;2023-04-06T10:40:44;100669.00;;;4.58;100.00
39341;BME280;25059;52.132;21.062;2023-04-06T10:43:33;100676.88;;;4.49;100.00
39341;BME280;25059;52.132;21.062;2023-04-06T10:46:26;100666.56;;;4.40;100.00
39341;BME280;25059;52.132;21.062;2023-04-06T10:49:11;100660.72;;;4.10;100.00
39341;BME280;25059;52.132;21.062;2023-04-06T10:51:57;100665.09;;;4.04;100.00
39341;BME280;25059;52.132;21.062;2023-04-06T10:54:42;100660.56;;;4.29;100.00
39341;BME280;25059;52.132;21.062;2023-04-06T10:57:29;100656.13;;;4.43;100.00
39341;BME280;25059;52.132;21.062;2023-04-06T11:03:52;100644.56;;;4.71;100.00
39341;BME280;25059;52.132;21.062;2023-04-06T11:06:38;100639.25;;;4.80;100.00
39341;BME280;25059;52.132;21.062;2023-04-06T11:09:25;100642.63;;;4.89;100.00
39341;BME280;25059;52.132;21.062;2023-04-06T11:12:21;100638.97;;;5.05;100.00
39341;BME280;25059;52.132;21.062;2023-04-06T11:15:06;100619.81;;;5.09;100.00
39341;BME280;25059;52.132;21.062;2023-04-06T11:17:51;100640.56;;;5.18;100.00
39341;BME280;25059;52.132;21.062;2023-04-06T11:20:35;100631.34;;;4.90;100.00
39341;BME280;25059;52.132;21.062;2023-04-06T11:23:24;100617.66;;;4.69;100.00
39341;BME280;25059;52.132;21.062;2023-04-06T11:26:11;100627.97;;;4.80;100.00
39341;BME280;25059;52.132;21.062;2023-04-06T11:28:56;100619.22;;;4.85;100.00
39341;BME280;25059;52.132;21.062;2023-04-06T11:31:51;100641.66;;;4.97;100.00
39341;BME280;25059;52.132;21.062;2023-04-06T11:34:37;100637.56;;;4.75;100.00
39341;BME280;25059;52.132;21.062;2023-04-06T11:37:26;100639.66;;;4.41;100.00
39341;BME280;25059;52.132;21.062;2023-04-06T11:40:14;100627.34;;;4.58;100.00
39341;BME280;25059;52.132;21.062;2023-04-06T11:42:59;100618.72;;;4.53;100.00
39341;BME280;25059;52.132;21.062;2023-04-06T11:45:44;100624.09;;;4.33;100.00
39341;BME280;25059;52.132;21.062;2023-04-06T11:48:30;100614.28;;;4.61;100.00
39341;BME280;25059;52.132;21.062;2023-04-06T11:51:21;100612.91;;;5.06;100.00
39341;BME280;25059;52.132;21.062;2023-04-06T11:54:06;100606.44;;;4.64;100.00
39341;BME280;25059;52.132;21.062;2023-04-06T11:56:51;100597.25;;;5.06;100.00
39341;BME280;25059;52.132;21.062;2023-04-06T11:59:35;100600.69;;;5.11;100.00
39341;BME280;25059;52.132;21.062;2023-04-06T12:02:20;100591.75;;;5.29;100.00
39341;BME280;25059;52.132;21.062;2023-04-06T12:05:05;100589.63;;;4.91;100.00
39341;BME280;25059;52.132;21.062;2023-04-06T12:07:51;100588.97;;;5.41;100.00
39341;BME280;25059;52.132;21.062;2023-04-06T12:10:35;100582.84;;;5.45;100.00
39341;BME280;25059;52.132;21.062;2023-04-06T12:13:20;100577.19;;;5.13;100.00
39341;BME280;25059;52.132;21.062;2023-04-06T12:16:05;100566.81;;;5.10;100.00
39341;BME280;25059;52.132;21.062;2023-04-06T12:18:51;100558.31;;;4.96;100.00
39341;BME280;25059;52.132;21.062;2023-04-06T12:21:36;100567.47;;;5.27;100.00
39341;BME280;25059;52.132;21.062;2023-04-06T12:24:21;100580.41;;;5.33;100.00
39341;BME280;25059;52.132;21.062;2023-04-06T12:27:06;100584.06;;;5.20;100.00
39341;BME280;25059;52.132;21.062;2023-04-06T12:29:51;100577.50;;;4.90;100.00
39341;BME280;25059;52.132;21.062;2023-04-06T12:32:35;100578.69;;;5.31;100.00
39341;BME280;25059;52.132;21.062;2023-04-06T12:35:20;100571.63;;;5.39;100.00
39341;BME280;25059;52.132;21.062;2023-04-06T12:38:08;100578.34;;;5.55;100.00
39341;BME280;25059;52.132;21.062;2023-04-06T12:40:52;100578.41;;;5.52;100.00
39341;BME280;25059;52.132;21.062;2023-04-06T12:43:38;100575.09;;;5.39;100.00
39341;BME280;25059;52.132;21.062;2023-04-06T12:46:23;100569.97;;;5.33;100.00
39341;BME280;25059;52.132;21.062;2023-04-06T12:49:08;100576.19;;;5.25;100.00
39341;BME280;25059;52.132;21.062;2023-04-06T12:51:52;100576.84;;;5.39;100.00
39341;BME280;25059;52.132;21.062;2023-04-06T12:54:37;100570.66;;;5.46;100.00
39341;BME280;25059;52.132;21.062;2023-04-06T12:57:21;100562.88;;;5.44;100.00
39341;BME280;25059;52.132;21.062;2023-04-06T13:00:06;100571.59;;;5.42;100.00
39341;BME280;25059;52.132;21.062;2023-04-06T13:02:51;100561.09;;;5.46;100.00
39341;BME280;25059;52.132;21.062;2023-04-06T13:05:36;100555.38;;;5.20;100.00
39341;BME280;25059;52.132;21.062;2023-04-06T13:08:27;100541.53;;;5.16;100.00
39341;BME280;25059;52.132;21.062;2023-04-06T13:11:14;100541.31;;;5.32;100.00
39341;BME280;25059;52.132;21.062;2023-04-06T13:13:58;100525.78;;;5.24;100.00
39341;BME280;25059;52.132;21.062;2023-04-06T13:16:43;100528.16;;;4.78;100.00
39341;BME280;25059;52.132;21.062;2023-04-06T13:19:28;100527.41;;;4.68;100.00
39341;BME280;25059;52.132;21.062;2023-04-06T13:22:15;100534.13;;;4.86;100.00
39341;BME280;25059;52.132;21.062;2023-04-06T13:25:00;100527.28;;;4.79;100.00
39341;BME280;25059;52.132;21.062;2023-04-06T13:27:44;100528.91;;;4.88;100.00
39341;BME280;25059;52.132;21.062;2023-04-06T13:30:31;100540.25;;;4.82;100.00
39341;BME280;25059;52.132;21.062;2023-04-06T13:33:16;100534.16;;;4.83;100.00
39341;BME280;25059;52.132;21.062;2023-04-06T13:36:00;100531.03;;;4.57;100.00
39341;BME280;25059;52.132;21.062;2023-04-06T13:38:46;100522.09;;;4.77;100.00
39341;BME280;25059;52.132;21.062;2023-04-06T13:41:30;100529.06;;;4.75;100.00
39341;BME280;25059;52.132;21.062;2023-04-06T13:44:15;100524.72;;;4.74;100.00
39341;BME280;25059;52.132;21.062;2023-04-06T13:47:00;100517.09;;;4.59;100.00
39341;BME280;25059;52.132;21.062;2023-04-06T13:49:44;100524.94;;;4.56;100.00
39341;BME280;25059;52.132;21.062;2023-04-06T13:52:32;100526.47;;;4.74;100.00
39341;BME280;25059;52.132;21.062;2023-04-06T13:55:16;100518.03;;;4.55;100.00
39341;BME280;25059;52.132;21.062;2023-04-06T13:58:04;100513.66;;;4.57;100.00
39341;BME280;25059;52.132;21.062;2023-04-06T14:00:49;100500.81;;;4.42;100.00
39341;BME280;25059;52.132;21.062;2023-04-06T14:03:33;100510.38;;;4.40;100.00
39341;BME280;25059;52.132;21.062;2023-04-06T14:06:19;100497.34;;;4.41;100.00
39341;BME280;25059;52.132;21.062;2023-04-06T14:09:03;100500.78;;;4.46;100.00
39341;BME280;25059;52.132;21.062;2023-04-06T14:11:49;100486.97;;;4.40;100.00
39341;BME280;25059;52.132;21.062;2023-04-06T14:14:34;100496.50;;;4.39;100.00
39341;BME280;25059;52.132;21.062;2023-04-06T14:17:18;100498.00;;;4.60;100.00
39341;BME280;25059;52.132;21.062;2023-04-06T14:20:05;100500.56;;;4.63;100.00
39341;BME280;25059;52.132;21.062;2023-04-06T14:22:50;100489.91;;;4.81;100.00
39341;BME280;25059;52.132;21.062;2023-04-06T14:25:36;100502.31;;;4.61;100.00
39341;BME280;25059;52.132;21.062;2023-04-06T14:28:21;100500.44;;;4.74;100.00